sensor_id;sensor_type;location;lat;lon;timestamp;P1;P2;P0
74428;PMS5003;62860;52.134;23.714;2022-09-09T00:04:05;2;1;0.4
74428;PMS5003;62860;52.134;23.714;2022-09-09T00:08:31;1.8;1.3;1
74428;PMS5003;62860;52.134;23.714;2022-09-09T00:13:25;2;1.2;1
74428;PMS5003;62860;52.134;23.714;2022-09-09T00:19:01;2;1.6;1.2
74428;PMS5003;62860;52.134;23.714;2022-09-09T00:23:59;2.2;1.8;1.6
74428;PMS5003;62860;52.134;23.714;2022-09-09T00:28:49;1.6;1.6;1.2
74428;PMS5003;62860;52.134;23.714;2022-09-09T00:33:47;1.4;1.4;1.2
74428;PMS5003;62860;52.134;23.714;2022-09-09T00:39:00;1.8;1.8;1.6
74428;PMS5003;62860;52.134;23.714;2022-09-09T00:44:02;2.2;1.6;1
74428;PMS5003;62860;52.134;23.714;2022-09-09T00:49:40;1.8;1.8;1.6
74428;PMS5003;62860;52.134;23.714;2022-09-09T00:53:24;3.2;2.4;2.2
74428;PMS5003;62860;52.134;23.714;2022-09-09T00:58:29;3.8;2.6;2
74428;PMS5003;62860;52.134;23.714;2022-09-09T01:03:30;2.8;2.2;1.8
74428;PMS5003;62860;52.134;23.714;2022-09-09T01:08:26;4;3.2;2.6
74428;PMS5003;62860;52.134;23.714;2022-09-09T01:13:28;4.4;3.6;3
74428;PMS5003;62860;52.134;23.714;2022-09-09T01:18:53;6.2;4.2;3.4
74428;PMS5003;62860;52.134;23.714;2022-09-09T01:28:43;11;7.2;5.6
74428;PMS5003;62860;52.134;23.714;2022-09-09T01:33:59;8.8;6.8;5
74428;PMS5003;62860;52.134;23.714;2022-09-09T01:38:53;8.2;7;5.4
74428;PMS5003;62860;52.134;23.714;2022-09-09T01:43:29;11.8;8.8;7
74428;PMS5003;62860;52.134;23.714;2022-09-09T01:48:29;11;8.6;5.8
74428;PMS5003;62860;52.134;23.714;2022-09-09T01:53:23;10.4;8.8;7
74428;PMS5003;62860;52.134;23.714;2022-09-09T01:59:03;12;10.6;7.2
74428;PMS5003;62860;52.134;23.714;2022-09-09T02:03:44;16.6;14.4;10.2
74428;PMS5003;62860;52.134;23.714;2022-09-09T02:08:49;17;13.6;10
74428;PMS5003;62860;52.134;23.714;2022-09-09T02:13:48;16.6;14.2;10.4
74428;PMS5003;62860;52.134;23.714;2022-09-09T02:19:08;17.8;15.4;11
74428;PMS5003;62860;52.134;23.714;2022-09-09T02:23:40;14.2;12.2;9
74428;PMS5003;62860;52.134;23.714;2022-09-09T02:28:45;13.4;12.2;8.4
74428;PMS5003;62860;52.134;23.714;2022-09-09T02:33:41;17.4;15.4;11.4
74428;PMS5003;62860;52.134;23.714;2022-09-09T02:38:28;17.4;13.2;10
74428;PMS5003;62860;52.134;23.714;2022-09-09T02:43:31;20.6;14.8;11.8
74428;PMS5003;62860;52.134;23.714;2022-09-09T02:49:00;15.6;14;10.4
74428;PMS5003;62860;52.134;23.714;2022-09-09T02:54:04;16.4;14.2;11.2
74428;PMS5003;62860;52.134;23.714;2022-09-09T02:58:19;18.2;14.8;12.2
74428;PMS5003;62860;52.134;23.714;2022-09-09T03:03:41;13.8;12.2;8.8
74428;PMS5003;62860;52.134;23.714;2022-09-09T03:08:49;14.6;12;8.6
74428;PMS5003;62860;52.134;23.714;2022-09-09T03:13:59;13.4;12.4;10
74428;PMS5003;62860;52.134;23.714;2022-09-09T03:18:29;16.2;15;11.6
74428;PMS5003;62860;52.134;23.714;2022-09-09T03:23:19;15;13.6;9.4
74428;PMS5003;62860;52.134;23.714;2022-09-09T03:28:35;15.2;12.6;9.2
74428;PMS5003;62860;52.134;23.714;2022-09-09T03:33:29;13.4;11.2;8.4
74428;PMS5003;62860;52.134;23.714;2022-09-09T03:38:33;16;12;8.6
74428;PMS5003;62860;52.134;23.714;2022-09-09T03:43:35;16.4;13.2;8.4
74428;PMS5003;62860;52.134;23.714;2022-09-09T03:48:51;16.8;14.2;11.2
74428;PMS5003;62860;52.134;23.714;2022-09-09T03:53:49;19.4;13.2;9.6
74428;PMS5003;62860;52.134;23.714;2022-09-09T03:58:59;18.6;15.6;13
74428;PMS5003;62860;52.134;23.714;2022-09-09T04:03:51;15;14.6;11
74428;PMS5003;62860;52.134;23.714;2022-09-09T04:08:59;17.4;15.4;11.8
74428;PMS5003;62860;52.134;23.714;2022-09-09T04:14:01;19;15.4;11
74428;PMS5003;62860;52.134;23.714;2022-09-09T04:18:27;17.6;15.8;12.4
74428;PMS5003;62860;52.134;23.714;2022-09-09T04:23:35;17.6;15;11.4
74428;PMS5003;62860;52.134;23.714;2022-09-09T04:28:51;18.2;16.6;13.4
74428;PMS5003;62860;52.134;23.714;2022-09-09T04:34:03;16.8;15.6;12
74428;PMS5003;62860;52.134;23.714;2022-09-09T04:38:45;17.8;15.6;11.4
74428;PMS5003;62860;52.134;23.714;2022-09-09T04:43:49;17.6;14.2;11
74428;PMS5003;62860;52.134;23.714;2022-09-09T04:48:49;17.8;15;10.8
74428;PMS5003;62860;52.134;23.714;2022-09-09T04:53:37;15.2;13.6;9.8
74428;PMS5003;62860;52.134;23.714;2022-09-09T04:58:40;16.8;15.2;12.2
74428;PMS5003;62860;52.134;23.714;2022-09-09T05:03:49;16;14;11
74428;PMS5003;62860;52.134;23.714;2022-09-09T05:08:19;19.4;16.8;12.6
74428;PMS5003;62860;52.134;23.714;2022-09-09T05:13:29;17;14.8;11
74428;PMS5003;62860;52.134;23.714;2022-09-09T05:18:29;18;16.3;13
74428;PMS5003;62860;52.134;23.714;2022-09-09T05:24:05;18.4;16.6;13.6
74428;PMS5003;62860;52.134;23.714;2022-09-09T05:28:53;19.4;17.4;13.4
74428;PMS5003;62860;52.134;23.714;2022-09-09T05:33:38;21.2;17.8;13.8
74428;PMS5003;62860;52.134;23.714;2022-09-09T05:38:43;18.6;16.2;13.4
74428;PMS5003;62860;52.134;23.714;2022-09-09T05:44:05;19.8;18.2;14.2
74428;PMS5003;62860;52.134;23.714;2022-09-09T05:49:05;19.2;15.6;12.8
74428;PMS5003;62860;52.134;23.714;2022-09-09T05:53:19;21;18.6;14.8
74428;PMS5003;62860;52.134;23.714;2022-09-09T05:58:31;20;17;12.2
74428;PMS5003;62860;52.134;23.714;2022-09-09T06:03:44;20.2;18;15.4
74428;PMS5003;62860;52.134;23.714;2022-09-09T06:08:48;21;19;15.2
74428;PMS5003;62860;52.134;23.714;2022-09-09T06:13:39;24.4;21.6;16.6
74428;PMS5003;62860;52.134;23.714;2022-09-09T06:18:29;27.2;23;19.6
74428;PMS5003;62860;52.134;23.714;2022-09-09T06:23:30;30.4;27;23
74428;PMS5003;62860;52.134;23.714;2022-09-09T06:29:04;32.6;30.6;25.6
74428;PMS5003;62860;52.134;23.714;2022-09-09T06:33:52;36.4;32;25.2
74428;PMS5003;62860;52.134;23.714;2022-09-09T06:39:06;34.6;32;25.6
74428;PMS5003;62860;52.134;23.714;2022-09-09T06:44:05;34;30.8;25
74428;PMS5003;62860;52.134;23.714;2022-09-09T06:48:40;34.4;31.4;26.2
74428;PMS5003;62860;52.134;23.714;2022-09-09T06:53:40;33;31;25.6
74428;PMS5003;62860;52.134;23.714;2022-09-09T06:58:55;24.8;22.6;18.6
74428;PMS5003;62860;52.134;23.714;2022-09-09T07:04:05;23.8;21.8;17.8
74428;PMS5003;62860;52.134;23.714;2022-09-09T07:08:48;25.4;22;19
74428;PMS5003;62860;52.134;23.714;2022-09-09T07:13:54;24.4;22.2;18.6
74428;PMS5003;62860;52.134;23.714;2022-09-09T07:18:54;22.4;21.8;18.6
74428;PMS5003;62860;52.134;23.714;2022-09-09T07:23:44;26.4;24.4;18.8
74428;PMS5003;62860;52.134;23.714;2022-09-09T07:28:20;36.2;30.4;22.8
74428;PMS5003;62860;52.134;23.714;2022-09-09T07:33:51;28;24;18.2
74428;PMS5003;62860;52.134;23.714;2022-09-09T07:38:19;24.6;20.4;15.6
74428;PMS5003;62860;52.134;23.714;2022-09-09T07:43:29;21.6;18.2;12.8
74428;PMS5003;62860;52.134;23.714;2022-09-09T07:48:43;20.2;17.6;14
74428;PMS5003;62860;52.134;23.714;2022-09-09T07:54:09;17;15.6;11.4
74428;PMS5003;62860;52.134;23.714;2022-09-09T07:58:54;19;13.6;9.6
74428;PMS5003;62860;52.134;23.714;2022-09-09T08:03:39;17.2;14.4;11.2
74428;PMS5003;62860;52.134;23.714;2022-09-09T08:08:43;24.2;20.6;16.6
74428;PMS5003;62860;52.134;23.714;2022-09-09T08:14:08;28.6;26;22
74428;PMS5003;62860;52.134;23.714;2022-09-09T08:19:08;26;22.4;19.2
74428;PMS5003;62860;52.134;23.714;2022-09-09T08:23:19;23.2;21;17
74428;PMS5003;62860;52.134;23.714;2022-09-09T08:28:29;21.8;18.6;15.2
74428;PMS5003;62860;52.134;23.714;2022-09-09T08:33:19;21.6;19;16.4
74428;PMS5003;62860;52.134;23.714;2022-09-09T08:38:19;22.2;21.2;16.8
74428;PMS5003;62860;52.134;23.714;2022-09-09T08:43:40;24.6;19.2;16.2
74428;PMS5003;62860;52.134;23.714;2022-09-09T08:48:58;23.2;19.6;16.6
74428;PMS5003;62860;52.134;23.714;2022-09-09T08:53:58;22.8;21.2;17.2
74428;PMS5003;62860;52.134;23.714;2022-09-09T08:59:09;32.6;27.4;20.6
74428;PMS5003;62860;52.134;23.714;2022-09-09T09:03:32;29;25;18.8
74428;PMS5003;62860;52.134;23.714;2022-09-09T09:09:39;25.6;23;17.6
74428;PMS5003;62860;52.134;23.714;2022-09-09T09:13:58;19.8;16.6;12
74428;PMS5003;62860;52.134;23.714;2022-09-09T09:18:29;24;22.4;17.2
74428;PMS5003;62860;52.134;23.714;2022-09-09T09:23:31;23;19.6;16
74428;PMS5003;62860;52.134;23.714;2022-09-09T09:28:29;21.4;19.8;16.4
74428;PMS5003;62860;52.134;23.714;2022-09-09T09:33:43;26;22.6;19.4
74428;PMS5003;62860;52.134;23.714;2022-09-09T09:38:51;25.8;23.6;19.8
74428;PMS5003;62860;52.134;23.714;2022-09-09T09:44:06;35;32.8;26.6
74428;PMS5003;62860;52.134;23.714;2022-09-09T09:48:58;36.6;33.4;26.8
74428;PMS5003;62860;52.134;23.714;2022-09-09T09:53:53;37;33.2;26.2
74428;PMS5003;62860;52.134;23.714;2022-09-09T09:58:50;47.6;40.8;32.8
74428;PMS5003;62860;52.134;23.714;2022-09-09T10:03:52;48.8;42.8;34.4
74428;PMS5003;62860;52.134;23.714;2022-09-09T10:08:18;50.2;42.8;34.6
74428;PMS5003;62860;52.134;23.714;2022-09-09T10:13:51;52.4;45;35.4
74428;PMS5003;62860;52.134;23.714;2022-09-09T10:25:14;14.4;12;9.4
74428;PMS5003;62860;52.134;23.714;2022-09-09T10:29:10;11.2;10.4;9
74428;PMS5003;62860;52.134;23.714;2022-09-09T10:33:22;15.3;12.5;9.8
74428;PMS5003;62860;52.134;23.714;2022-09-09T10:38:45;11.4;10.2;7.4
74428;PMS5003;62860;52.134;23.714;2022-09-09T10:44:15;11;9.4;6.6
74428;PMS5003;62860;52.134;23.714;2022-09-09T10:50:12;26.4;24.2;19.2
74428;PMS5003;62860;52.134;23.714;2022-09-09T10:53:21;29.8;26.8;22
74428;PMS5003;62860;52.134;23.714;2022-09-09T10:58:36;16.8;15.4;13
74428;PMS5003;62860;52.134;23.714;2022-09-09T11:03:33;13.2;11.8;8.8
74428;PMS5003;62860;52.134;23.714;2022-09-09T11:08:28;11.6;9.4;7.6
74428;PMS5003;62860;52.134;23.714;2022-09-09T11:13:55;11;8.4;7
74428;PMS5003;62860;52.134;23.714;2022-09-09T11:18:38;11.2;9.6;7.8
74428;PMS5003;62860;52.134;23.714;2022-09-09T11:23:53;12.4;9;6.2
74428;PMS5003;62860;52.134;23.714;2022-09-09T11:28:59;11;9.8;7.4
74428;PMS5003;62860;52.134;23.714;2022-09-09T11:34:10;11.6;9.4;8
74428;PMS5003;62860;52.134;23.714;2022-09-09T11:39:21;9.2;7.8;6.4
74428;PMS5003;62860;52.134;23.714;2022-09-09T11:43:52;10.8;8.4;6.4
74428;PMS5003;62860;52.134;23.714;2022-09-09T11:48:31;7.2;6.2;4.2
74428;PMS5003;62860;52.134;23.714;2022-09-09T11:53:19;9.2;6.8;5.6
74428;PMS5003;62860;52.134;23.714;2022-09-09T11:58:17;9.6;7.4;4.6
74428;PMS5003;62860;52.134;23.714;2022-09-09T12:03:46;5.8;4.8;3.6
74428;PMS5003;62860;52.134;23.714;2022-09-09T12:08:51;5.4;5.2;3.4
74428;PMS5003;62860;52.134;23.714;2022-09-09T12:14:01;7.4;6.4;4.2
74428;PMS5003;62860;52.134;23.714;2022-09-09T12:18:49;8;5.6;4.6
74428;PMS5003;62860;52.134;23.714;2022-09-09T12:23:48;6.2;5.2;3.8
74428;PMS5003;62860;52.134;23.714;2022-09-09T12:29:00;6.2;5.4;4
74428;PMS5003;62860;52.134;23.714;2022-09-09T12:33:40;10.2;7.4;5.6
74428;PMS5003;62860;52.134;23.714;2022-09-09T12:38:37;9;7.2;5.6
74428;PMS5003;62860;52.134;23.714;2022-09-09T12:43:18;7.8;7.6;5.6
74428;PMS5003;62860;52.134;23.714;2022-09-09T12:48:29;9.4;8;5.2
74428;PMS5003;62860;52.134;23.714;2022-09-09T12:54:05;9;7.2;6
74428;PMS5003;62860;52.134;23.714;2022-09-09T12:59:17;6.8;6.2;4.6
74428;PMS5003;62860;52.134;23.714;2022-09-09T13:03:52;7.6;6.8;4.6
74428;PMS5003;62860;52.134;23.714;2022-09-09T13:08:54;8.2;6;4
74428;PMS5003;62860;52.134;23.714;2022-09-09T13:13:40;8;7;4.8
74428;PMS5003;62860;52.134;23.714;2022-09-09T13:19:16;8.2;5.8;4.2
74428;PMS5003;62860;52.134;23.714;2022-09-09T13:24:39;6.4;5.4;3.8
74428;PMS5003;62860;52.134;23.714;2022-09-09T13:28:54;10;6.4;5
74428;PMS5003;62860;52.134;23.714;2022-09-09T13:33:20;10.4;8.4;5.4
74428;PMS5003;62860;52.134;23.714;2022-09-09T13:38:17;8.6;6.4;4.6
74428;PMS5003;62860;52.134;23.714;2022-09-09T13:43:53;8.4;6.4;4
74428;PMS5003;62860;52.134;23.714;2022-09-09T13:48:37;8.8;6.2;4.6
74428;PMS5003;62860;52.134;23.714;2022-09-09T13:53:37;8.2;7;5.2
74428;PMS5003;62860;52.134;23.714;2022-09-09T13:58:54;9;7.6;5.6
74428;PMS5003;62860;52.134;23.714;2022-09-09T14:03:41;7.8;6.4;5.2
74428;PMS5003;62860;52.134;23.714;2022-09-09T14:08:52;7.8;7;5.2
74428;PMS5003;62860;52.134;23.714;2022-09-09T14:13:54;7.2;5.8;4.2
74428;PMS5003;62860;52.134;23.714;2022-09-09T14:19:10;8.2;6;4.8
74428;PMS5003;62860;52.134;23.714;2022-09-09T14:23:17;7.6;6.8;4.8
74428;PMS5003;62860;52.134;23.714;2022-09-09T14:28:18;7;4.4;4
74428;PMS5003;62860;52.134;23.714;2022-09-09T14:33:40;8.4;7.6;5.2
74428;PMS5003;62860;52.134;23.714;2022-09-09T14:39:06;7.8;6.8;4.4
74428;PMS5003;62860;52.134;23.714;2022-09-09T14:43:50;7;5.8;4.2
74428;PMS5003;62860;52.134;23.714;2022-09-09T14:48:52;5.8;5.6;4.4
74428;PMS5003;62860;52.134;23.714;2022-09-09T14:53:52;6.6;5.4;3.8
74428;PMS5003;62860;52.134;23.714;2022-09-09T14:58:40;8.2;6.2;4.4
74428;PMS5003;62860;52.134;23.714;2022-09-09T15:03:18;7;5.8;4.4
74428;PMS5003;62860;52.134;23.714;2022-09-09T15:08:50;5.4;4.6;3.6
74428;PMS5003;62860;52.134;23.714;2022-09-09T15:13:28;7.2;6.4;4
74428;PMS5003;62860;52.134;23.714;2022-09-09T15:18:28;7.4;6.2;4
74428;PMS5003;62860;52.134;23.714;2022-09-09T15:23:38;5.4;5;4
74428;PMS5003;62860;52.134;23.714;2022-09-09T15:29:08;4.8;4.2;3.6
74428;PMS5003;62860;52.134;23.714;2022-09-09T15:33:54;5.4;4.8;3.8
74428;PMS5003;62860;52.134;23.714;2022-09-09T15:38:40;6;5.2;4.6
74428;PMS5003;62860;52.134;23.714;2022-09-09T15:43:28;7;6;4.5
74428;PMS5003;62860;52.134;23.714;2022-09-09T15:49:11;7.8;6;4.4
74428;PMS5003;62860;52.134;23.714;2022-09-09T15:54:06;5.8;5;3.8
74428;PMS5003;62860;52.134;23.714;2022-09-09T15:58:55;7.4;6.6;5.2
74428;PMS5003;62860;52.134;23.714;2022-09-09T16:03:28;6.2;4.8;3.4
74428;PMS5003;62860;52.134;23.714;2022-09-09T16:08:18;4.8;4.4;3.2
74428;PMS5003;62860;52.134;23.714;2022-09-09T16:13:32;5.2;4.4;3.6
74428;PMS5003;62860;52.134;23.714;2022-09-09T16:18:39;5.4;5;3.6
74428;PMS5003;62860;52.134;23.714;2022-09-09T16:23:38;7.8;6;3.8
74428;PMS5003;62860;52.134;23.714;2022-09-09T16:28:44;6.8;5.6;3.4
74428;PMS5003;62860;52.134;23.714;2022-09-09T16:34:04;6.4;4.8;3.6
74428;PMS5003;62860;52.134;23.714;2022-09-09T16:38:52;5.4;3.6;3
74428;PMS5003;62860;52.134;23.714;2022-09-09T16:44:08;5.4;4.2;3.4
74428;PMS5003;62860;52.134;23.714;2022-09-09T16:49:07;5.6;4;3
74428;PMS5003;62860;52.134;23.714;2022-09-09T16:53:54;5.4;4.2;3.4
74428;PMS5003;62860;52.134;23.714;2022-09-09T16:58:38;5.6;3.6;2.8
74428;PMS5003;62860;52.134;23.714;2022-09-09T17:03:52;5.2;4;3.6
74428;PMS5003;62860;52.134;23.714;2022-09-09T17:09:07;3.8;2.8;2.6
74428;PMS5003;62860;52.134;23.714;2022-09-09T17:13:54;4.6;3.6;3
74428;PMS5003;62860;52.134;23.714;2022-09-09T17:18:54;5.2;3.8;3.2
74428;PMS5003;62860;52.134;23.714;2022-09-09T17:23:52;4.4;3.8;2.8
74428;PMS5003;62860;52.134;23.714;2022-09-09T17:28:18;5.8;4;3.2
74428;PMS5003;62860;52.134;23.714;2022-09-09T17:33:54;4.8;4;3.6
74428;PMS5003;62860;52.134;23.714;2022-09-09T17:38:52;4;3.8;2.8
74428;PMS5003;62860;52.134;23.714;2022-09-09T17:43:18;5;4;3.4
74428;PMS5003;62860;52.134;23.714;2022-09-09T17:48:18;9;7.4;5.8
74428;PMS5003;62860;52.134;23.714;2022-09-09T17:53:18;7.3;6.8;5
74428;PMS5003;62860;52.134;23.714;2022-09-09T17:59:10;5.8;4.8;3.8
74428;PMS5003;62860;52.134;23.714;2022-09-09T18:04:10;4.6;4.2;2.8
74428;PMS5003;62860;52.134;23.714;2022-09-09T18:08:42;3.6;3.4;2.8
74428;PMS5003;62860;52.134;23.714;2022-09-09T18:13:18;6.2;4.6;3.8
74428;PMS5003;62860;52.134;23.714;2022-09-09T18:19:09;8.4;7.2;6.2
74428;PMS5003;62860;52.134;23.714;2022-09-09T18:24:10;7.4;7;5.4
74428;PMS5003;62860;52.134;23.714;2022-09-09T18:28:18;9.6;7.4;6.2
74428;PMS5003;62860;52.134;23.714;2022-09-09T18:33:28;7.6;6;5
74428;PMS5003;62860;52.134;23.714;2022-09-09T18:38:26;8;7;6.4
74428;PMS5003;62860;52.134;23.714;2022-09-09T18:43:28;7.8;6.4;5
74428;PMS5003;62860;52.134;23.714;2022-09-09T18:48:38;6.2;5.8;4.4
74428;PMS5003;62860;52.134;23.714;2022-09-09T18:53:38;7.2;5.8;4.4
74428;PMS5003;62860;52.134;23.714;2022-09-09T18:58:55;5;4;3.4
74428;PMS5003;62860;52.134;23.714;2022-09-09T19:03:42;5.8;4.4;3.4
74428;PMS5003;62860;52.134;23.714;2022-09-09T19:08:40;6.4;5.6;4.4
74428;PMS5003;62860;52.134;23.714;2022-09-09T19:14:09;6.4;5.4;4
74428;PMS5003;62860;52.134;23.714;2022-09-09T19:18:52;5.8;5.2;4.6
74428;PMS5003;62860;52.134;23.714;2022-09-09T19:23:28;6.2;6;4.8
74428;PMS5003;62860;52.134;23.714;2022-09-09T19:28:18;7.4;5.8;4.6
74428;PMS5003;62860;52.134;23.714;2022-09-09T19:33:38;8;6.8;5.4
74428;PMS5003;62860;52.134;23.714;2022-09-09T19:39:04;8.6;8.4;6.4
74428;PMS5003;62860;52.134;23.714;2022-09-09T19:43:54;10.4;8.4;6.4
74428;PMS5003;62860;52.134;23.714;2022-09-09T19:49:02;7.6;7;6
74428;PMS5003;62860;52.134;23.714;2022-09-09T19:53:53;8.4;7.8;7
74428;PMS5003;62860;52.134;23.714;2022-09-09T19:58:56;16.8;13.4;10.2
74428;PMS5003;62860;52.134;23.714;2022-09-09T20:03:40;44.8;34.4;24
74428;PMS5003;62860;52.134;23.714;2022-09-09T20:08:52;17.4;15.8;12.2
74428;PMS5003;62860;52.134;23.714;2022-09-09T20:13:18;15.6;13.8;11.4
74428;PMS5003;62860;52.134;23.714;2022-09-09T20:18:18;11.4;9;8.4
74428;PMS5003;62860;52.134;23.714;2022-09-09T20:23:18;13;11.2;10
74428;PMS5003;62860;52.134;23.714;2022-09-09T20:29:10;15.8;13.2;11.8
74428;PMS5003;62860;52.134;23.714;2022-09-09T20:34:10;11.4;10.8;10
74428;PMS5003;62860;52.134;23.714;2022-09-09T20:38:42;12.6;10.2;9.4
74428;PMS5003;62860;52.134;23.714;2022-09-09T20:43:28;11.4;10.6;9.2
74428;PMS5003;62860;52.134;23.714;2022-09-09T20:49:08;12;10;9
74428;PMS5003;62860;52.134;23.714;2022-09-09T20:54:11;11.4;9.6;8.6
74428;PMS5003;62860;52.134;23.714;2022-09-09T20:58:42;11.2;10;8.4
74428;PMS5003;62860;52.134;23.714;2022-09-09T21:03:54;8.6;7.8;6.2
74428;PMS5003;62860;52.134;23.714;2022-09-09T21:08:36;8.4;8;6.4
74428;PMS5003;62860;52.134;23.714;2022-09-09T21:13:18;8.6;7.6;6
74428;PMS5003;62860;52.134;23.714;2022-09-09T21:18:38;9.6;7.4;6.2
74428;PMS5003;62860;52.134;23.714;2022-09-09T21:23:53;9.4;8.4;7
74428;PMS5003;62860;52.134;23.714;2022-09-09T21:28:28;10.6;9;6.8
74428;PMS5003;62860;52.134;23.714;2022-09-09T21:33:55;7.8;7;5.6
74428;PMS5003;62860;52.134;23.714;2022-09-09T21:38:40;10.4;8.2;6
74428;PMS5003;62860;52.134;23.714;2022-09-09T21:44:08;7.2;5.8;4.4
74428;PMS5003;62860;52.134;23.714;2022-09-09T21:48:57;8;5.5;5.3
74428;PMS5003;62860;52.134;23.714;2022-09-09T21:53:28;6.6;6.4;5
74428;PMS5003;62860;52.134;23.714;2022-09-09T21:58:28;7.6;6.4;5
74428;PMS5003;62860;52.134;23.714;2022-09-09T22:03:28;7.8;6;4.6
74428;PMS5003;62860;52.134;23.714;2022-09-09T22:08:52;8.6;7.4;6.2
74428;PMS5003;62860;52.134;23.714;2022-09-09T22:14:08;7.4;6;4.4
74428;PMS5003;62860;52.134;23.714;2022-09-09T22:18:28;7.4;6.4;5
74428;PMS5003;62860;52.134;23.714;2022-09-09T22:23:52;5.6;5.6;4.2
74428;PMS5003;62860;52.134;23.714;2022-09-09T22:28:28;6.6;6.6;4.6
74428;PMS5003;62860;52.134;23.714;2022-09-09T22:33:32;5.4;5.4;3.8
74428;PMS5003;62860;52.134;23.714;2022-09-09T22:38:40;7.2;5;3.8
74428;PMS5003;62860;52.134;23.714;2022-09-09T22:43:52;7.4;5;3.6
74428;PMS5003;62860;52.134;23.714;2022-09-09T22:48:18;8.8;6;4.2
74428;PMS5003;62860;52.134;23.714;2022-09-09T22:53:58;7.4;5.6;3.8
74428;PMS5003;62860;52.134;23.714;2022-09-09T22:58:28;4.6;3.2;3
74428;PMS5003;62860;52.134;23.714;2022-09-09T23:04:04;4.6;3.8;3.2
74428;PMS5003;62860;52.134;23.714;2022-09-09T23:08:53;6.2;3.8;3
74428;PMS5003;62860;52.134;23.714;2022-09-09T23:13:30;5.4;3.4;3.2
74428;PMS5003;62860;52.134;23.714;2022-09-09T23:18:32;6.6;4.8;3
74428;PMS5003;62860;52.134;23.714;2022-09-09T23:24:06;4;3.4;2.6
74428;PMS5003;62860;52.134;23.714;2022-09-09T23:29:06;4.2;3.6;3.2
74428;PMS5003;62860;52.134;23.714;2022-09-09T23:34:06;4.8;3.2;2.8
74428;PMS5003;62860;52.134;23.714;2022-09-09T23:38:36;3.2;3.2;2.6
74428;PMS5003;62860;52.134;23.714;2022-09-09T23:43:18;4.2;3.4;3
74428;PMS5003;62860;52.134;23.714;2022-09-09T23:49:06;3.8;2;2
74428;PMS5003;62860;52.134;23.714;2022-09-09T23:53:38;3.6;2.8;2.2
74428;PMS5003;62860;52.134;23.714;2022-09-09T23:58:18;2.4;2.4;2
